Aviation Digital Data Service (ADDS)

Output produced by METARs form (0001 UTC 01 July 2015)
found at http://aviationweather.gov/adds/metars/
 
KRIC 302340Z 0100/0124 20009KT P6SM SCT050 BKN200 
     FM010300 22005KT P6SM BKN120 
     FM011400 26008KT P6SM SCT250